KETN/ETN METAR and TAF weather

Enter ICAO airport designator
Station Type Date Time Source
KETN METAR 2019/08/26 06:55 UTC NOAA

KETN 260655Z AUTO 14008KT 10SM CLR 27/21 A2979 RMK AO2 T02660208


Station Type Date Time Source
KETN Decoded METAR 2019/08/26 06:55 UTC NOAA

Station name not available
Aug 26, 2019 - 02:55 AM EDT / 2019.08.26 0655 UTC
Wind: from the SE (140 degrees) at 9 MPH (8 KT):0
Visibility: 10 mile(s):0
Sky conditions: clear
Temperature: 79.9 F (26.6 C)
Dew Point: 69.4 F (20.8 C)
Relative Humidity: 70%
Pressure (altimeter): 29.79 in. Hg (1008 hPa)
ob: KETN 260655Z AUTO 14008KT 10SM CLR 27/21 A2979 RMK AO2 T02660208
cycle: 7

Station Type Date Time Source
KETN TAF UTC NOAA

Error!

Example: see airport list